createdAt,value
2018-03-06T00:00:17.462Z,0
2018-03-06T00:00:57.968Z,0
2018-03-06T00:01:38.470Z,0
2018-03-06T00:02:18.974Z,0
2018-03-06T00:02:59.490Z,0
2018-03-06T00:03:39.978Z,0
2018-03-06T00:04:20.491Z,0
2018-03-06T00:05:01.001Z,0
2018-03-06T00:05:41.518Z,0
2018-03-06T00:06:22.031Z,0
2018-03-06T00:07:02.542Z,0
2018-03-06T00:07:43.064Z,0
2018-03-06T00:08:23.585Z,0
2018-03-06T00:09:04.079Z,0
2018-03-06T00:09:44.592Z,0
2018-03-06T00:10:25.135Z,0
2018-03-06T00:11:05.667Z,0
2018-03-06T00:11:46.167Z,0
2018-03-06T00:12:30.933Z,0
2018-03-06T00:13:08.933Z,0
2018-03-06T00:13:48.660Z,0
2018-03-06T00:14:29.172Z,0
2018-03-06T00:15:09.675Z,0
2018-03-06T00:15:50.192Z,0
2018-03-06T00:16:30.712Z,0
2018-03-06T00:17:11.247Z,0
2018-03-06T00:17:51.762Z,0
2018-03-06T00:18:32.276Z,0
2018-03-06T00:19:12.791Z,0
2018-03-06T00:19:53.310Z,0
2018-03-06T00:20:33.844Z,0
2018-03-06T00:21:14.356Z,0
2018-03-06T00:21:54.869Z,0
2018-03-06T00:22:35.403Z,0
2018-03-06T00:23:15.950Z,0
2018-03-06T00:23:56.460Z,0
2018-03-06T00:24:36.974Z,0
2018-03-06T00:25:17.490Z,0
2018-03-06T00:25:58.016Z,0
2018-03-06T00:26:38.519Z,0
2018-03-06T00:27:19.034Z,0
2018-03-06T00:27:59.530Z,0
2018-03-06T00:28:40.042Z,0
2018-03-06T00:29:20.567Z,0
2018-03-06T00:30:01.066Z,0
2018-03-06T00:30:41.576Z,0
2018-03-06T00:31:22.092Z,0
2018-03-06T00:32:02.609Z,0
2018-03-06T00:32:43.132Z,0
2018-03-06T00:33:23.645Z,0
2018-03-06T00:34:04.176Z,0
2018-03-06T00:34:44.693Z,0
2018-03-06T00:35:25.214Z,0
2018-03-06T00:36:05.727Z,0
2018-03-06T00:36:46.241Z,0
2018-03-06T00:37:26.831Z,0
2018-03-06T00:38:07.335Z,0
2018-03-06T00:38:47.912Z,0
2018-03-06T00:39:28.419Z,0
2018-03-06T00:40:08.936Z,0
2018-03-06T00:40:49.443Z,0
2018-03-06T00:41:29.947Z,0
2018-03-06T00:42:10.476Z,0
2018-03-06T00:42:50.996Z,0
2018-03-06T00:43:31.511Z,0
2018-03-06T00:44:12.013Z,0
2018-03-06T00:44:52.518Z,0
2018-03-06T00:45:33.035Z,0
2018-03-06T00:46:13.555Z,0
2018-03-06T00:46:54.077Z,0
2018-03-06T00:47:34.601Z,0
2018-03-06T00:48:15.115Z,0
2018-03-06T00:48:55.627Z,0
2018-03-06T00:49:36.148Z,0
2018-03-06T00:50:16.649Z,0
2018-03-06T00:50:57.163Z,0
2018-03-06T00:51:37.699Z,0
2018-03-06T00:52:18.220Z,0
2018-03-06T00:52:58.754Z,0
2018-03-06T00:53:39.251Z,0
2018-03-06T00:54:19.772Z,0
2018-03-06T00:55:00.281Z,0
2018-03-06T00:55:40.771Z,0
2018-03-06T00:56:21.279Z,0
2018-03-06T00:57:01.780Z,0
2018-03-06T00:57:42.301Z,0
2018-03-06T00:58:22.813Z,0
2018-03-06T00:59:03.340Z,0
2018-03-06T00:59:43.855Z,0
2018-03-06T01:00:24.366Z,0
2018-03-06T01:01:04.882Z,0
2018-03-06T01:01:45.406Z,0
2018-03-06T01:02:26.012Z,0
2018-03-06T01:03:06.445Z,0
2018-03-06T01:03:46.972Z,0
2018-03-06T01:04:27.494Z,0
2018-03-06T01:05:08.006Z,0
2018-03-06T01:05:48.525Z,0
2018-03-06T01:06:29.051Z,0
2018-03-06T01:07:09.563Z,0
2018-03-06T01:07:50.085Z,0
2018-03-06T01:08:30.607Z,0
2018-03-06T01:09:11.113Z,0
2018-03-06T01:09:51.630Z,0
2018-03-06T01:10:32.136Z,0
2018-03-06T01:11:12.646Z,0
2018-03-06T01:11:53.157Z,0
2018-03-06T01:12:33.678Z,0
2018-03-06T01:13:14.189Z,0
2018-03-06T01:13:54.712Z,0
2018-03-06T01:14:35.238Z,0
2018-03-06T01:15:15.761Z,0
2018-03-06T01:15:56.266Z,0
2018-03-06T01:16:36.783Z,0
2018-03-06T01:17:17.285Z,0
2018-03-06T01:17:57.803Z,0
2018-03-06T01:18:38.323Z,0
2018-03-06T01:19:18.832Z,0
2018-03-06T01:19:59.344Z,0
2018-03-06T01:20:39.861Z,0
2018-03-06T01:21:20.383Z,0
2018-03-06T01:22:00.897Z,0
2018-03-06T01:22:41.414Z,0
2018-03-06T01:23:21.931Z,0
2018-03-06T01:24:02.439Z,0
2018-03-06T01:24:42.950Z,0
2018-03-06T01:25:23.474Z,0
2018-03-06T01:26:03.987Z,0
2018-03-06T01:26:44.492Z,0
2018-03-06T01:27:25.005Z,0
2018-03-06T01:28:05.517Z,0
2018-03-06T01:28:46.035Z,0
2018-03-06T01:29:26.566Z,0
2018-03-06T01:30:07.111Z,0
2018-03-06T01:30:47.630Z,0
2018-03-06T01:31:28.143Z,0
2018-03-06T01:32:08.659Z,0
2018-03-06T01:32:49.177Z,0
2018-03-06T01:33:29.693Z,0
2018-03-06T01:34:10.186Z,0
2018-03-06T01:34:50.709Z,0
2018-03-06T01:35:31.231Z,0
2018-03-06T01:36:11.736Z,0
2018-03-06T01:36:52.250Z,0
2018-03-06T01:37:32.824Z,0
2018-03-06T01:38:13.302Z,0
2018-03-06T01:38:53.819Z,0
2018-03-06T01:39:34.343Z,0
2018-03-06T01:40:14.862Z,0
2018-03-06T01:40:55.358Z,0
2018-03-06T01:41:35.876Z,0
2018-03-06T01:42:16.398Z,0
2018-03-06T01:42:56.912Z,0
2018-03-06T01:43:37.429Z,0
2018-03-06T01:44:17.947Z,0
2018-03-06T01:44:58.459Z,0
2018-03-06T01:45:38.978Z,0
2018-03-06T01:46:19.496Z,0
2018-03-06T01:47:00.022Z,0
2018-03-06T01:47:40.539Z,0
2018-03-06T01:48:21.041Z,0
2018-03-06T01:49:01.561Z,0
2018-03-06T01:49:42.069Z,0
2018-03-06T01:50:22.579Z,0
2018-03-06T01:51:03.105Z,0
2018-03-06T01:51:43.595Z,0
2018-03-06T01:52:24.106Z,0
2018-03-06T01:53:04.637Z,0
2018-03-06T01:53:45.146Z,0
2018-03-06T01:54:25.658Z,0
2018-03-06T01:55:06.177Z,0
2018-03-06T01:55:46.697Z,0
2018-03-06T01:56:27.213Z,0
2018-03-06T01:57:07.723Z,0
2018-03-06T01:57:48.245Z,0
2018-03-06T01:58:28.755Z,0
2018-03-06T01:59:09.267Z,0
2018-03-06T01:59:49.783Z,0
2018-03-06T02:00:30.286Z,0
2018-03-06T02:01:10.804Z,0
2018-03-06T02:01:51.319Z,0
2018-03-06T02:02:31.825Z,0
2018-03-06T02:03:12.351Z,0
2018-03-06T02:03:52.880Z,0
2018-03-06T02:04:33.386Z,0
2018-03-06T02:05:13.904Z,0
2018-03-06T02:05:54.407Z,0
2018-03-06T02:06:34.916Z,0
2018-03-06T02:07:15.445Z,0
2018-03-06T02:07:55.966Z,0
2018-03-06T02:08:36.490Z,0
2018-03-06T02:09:17.001Z,0
2018-03-06T02:09:57.515Z,0
2018-03-06T02:10:38.034Z,0
2018-03-06T02:11:18.560Z,0
2018-03-06T02:11:59.065Z,0
2018-03-06T02:12:39.597Z,0
2018-03-06T02:13:20.119Z,0
2018-03-06T02:14:00.633Z,0
2018-03-06T02:14:41.228Z,0
2018-03-06T02:15:21.654Z,0
2018-03-06T02:16:02.161Z,0
2018-03-06T02:16:42.672Z,0
2018-03-06T02:17:23.198Z,0
2018-03-06T02:18:03.719Z,0
2018-03-06T02:18:44.227Z,0
2018-03-06T02:19:24.729Z,0
2018-03-06T02:20:05.248Z,0
2018-03-06T02:20:45.776Z,0
2018-03-06T02:21:26.287Z,0
2018-03-06T02:22:06.795Z,0
2018-03-06T02:22:47.296Z,0
2018-03-06T02:23:27.820Z,0
2018-03-06T02:24:08.321Z,0
2018-03-06T02:24:48.850Z,0
2018-03-06T02:25:29.352Z,0
2018-03-06T02:26:09.860Z,0
2018-03-06T02:26:50.383Z,0
2018-03-06T02:27:30.918Z,0
2018-03-06T02:28:11.448Z,0
2018-03-06T02:28:51.957Z,0
2018-03-06T02:29:32.466Z,0
2018-03-06T02:30:12.980Z,0
2018-03-06T02:30:53.490Z,0
2018-03-06T02:31:33.997Z,0
2018-03-06T02:32:14.525Z,0
2018-03-06T02:32:55.047Z,0
2018-03-06T02:33:35.585Z,0
2018-03-06T02:34:16.071Z,0
2018-03-06T02:34:56.615Z,0
2018-03-06T02:35:37.129Z,0
2018-03-06T02:36:17.635Z,0
2018-03-06T02:36:58.154Z,0
2018-03-06T02:37:38.659Z,0
2018-03-06T02:38:19.170Z,0
2018-03-06T02:38:59.705Z,0
2018-03-06T02:39:40.250Z,0
2018-03-06T02:40:20.758Z,0
2018-03-06T02:41:01.270Z,0
2018-03-06T02:41:41.792Z,0
2018-03-06T02:42:22.310Z,0
2018-03-06T02:43:02.834Z,0
2018-03-06T02:43:43.358Z,0
2018-03-06T02:44:23.882Z,0
2018-03-06T02:45:04.401Z,0
2018-03-06T02:45:44.911Z,0
2018-03-06T02:46:25.424Z,0
2018-03-06T02:47:05.945Z,0
2018-03-06T02:47:46.465Z,0
2018-03-06T02:48:26.985Z,0
2018-03-06T02:49:07.493Z,0
2018-03-06T02:49:48.026Z,0
2018-03-06T02:50:28.553Z,0
2018-03-06T02:51:09.067Z,0
2018-03-06T02:51:49.599Z,0
2018-03-06T02:52:30.113Z,0
2018-03-06T02:53:10.653Z,0
2018-03-06T02:53:51.158Z,0
2018-03-06T02:54:31.673Z,0
2018-03-06T02:55:12.189Z,0
2018-03-06T02:55:52.702Z,0
2018-03-06T02:56:33.224Z,0
2018-03-06T02:57:13.732Z,0
2018-03-06T02:57:54.245Z,0
2018-03-06T02:58:34.756Z,0
2018-03-06T02:59:15.273Z,0
2018-03-06T02:59:55.799Z,0
2018-03-06T03:00:36.316Z,0
2018-03-06T03:01:16.841Z,0
2018-03-06T03:01:57.352Z,0
2018-03-06T03:02:37.875Z,0
2018-03-06T03:03:18.408Z,0
2018-03-06T03:03:58.921Z,0
2018-03-06T03:04:39.406Z,0
2018-03-06T03:05:19.922Z,0
2018-03-06T03:06:00.422Z,0
2018-03-06T03:06:40.920Z,0
2018-03-06T03:07:21.450Z,0
2018-03-06T03:08:01.955Z,0
2018-03-06T03:08:42.463Z,0
2018-03-06T03:09:22.974Z,0
2018-03-06T03:10:03.492Z,0
2018-03-06T03:10:43.985Z,0
2018-03-06T03:11:24.513Z,0
2018-03-06T03:12:05.027Z,0
2018-03-06T03:12:45.537Z,0
2018-03-06T03:13:26.051Z,0
2018-03-06T03:14:06.574Z,0
2018-03-06T03:14:47.072Z,0
2018-03-06T03:15:27.589Z,0
2018-03-06T03:16:08.095Z,0
2018-03-06T03:16:48.601Z,0
2018-03-06T03:17:29.127Z,0
2018-03-06T03:18:09.642Z,0
2018-03-06T03:18:50.144Z,0
2018-03-06T03:19:30.655Z,0
2018-03-06T03:20:11.195Z,0
2018-03-06T03:20:51.737Z,0
2018-03-06T03:21:32.257Z,0
2018-03-06T03:22:12.783Z,0
2018-03-06T03:22:53.294Z,0
2018-03-06T03:23:33.816Z,0
2018-03-06T03:24:14.329Z,0
2018-03-06T03:24:54.843Z,0
2018-03-06T03:25:35.371Z,0
2018-03-06T03:26:15.872Z,0
2018-03-06T03:26:56.384Z,0
2018-03-06T03:27:36.910Z,0
2018-03-06T03:28:17.416Z,0
2018-03-06T03:28:57.928Z,0
2018-03-06T03:29:38.459Z,0
2018-03-06T03:30:18.965Z,0
2018-03-06T03:30:59.480Z,0
2018-03-06T03:31:39.988Z,0
2018-03-06T03:32:20.505Z,0
2018-03-06T03:33:01.026Z,0
2018-03-06T03:33:41.524Z,0
2018-03-06T03:34:22.026Z,0
2018-03-06T03:35:02.536Z,0
2018-03-06T03:35:43.065Z,0
2018-03-06T03:36:23.594Z,0
2018-03-06T03:37:04.097Z,0
2018-03-06T03:37:44.614Z,0
2018-03-06T03:38:25.127Z,0
2018-03-06T03:39:05.632Z,0
2018-03-06T03:39:46.155Z,0
2018-03-06T03:40:26.677Z,0
2018-03-06T03:41:07.204Z,0
2018-03-06T03:41:47.718Z,0
2018-03-06T03:42:28.237Z,0
2018-03-06T03:43:08.747Z,0
2018-03-06T03:43:49.258Z,0
2018-03-06T03:44:29.775Z,0
2018-03-06T03:45:10.282Z,0
2018-03-06T03:45:50.796Z,0
2018-03-06T03:46:31.318Z,0
2018-03-06T03:47:11.830Z,0
2018-03-06T03:47:52.324Z,0
2018-03-06T03:48:32.831Z,0
2018-03-06T03:49:13.341Z,0
2018-03-06T03:49:53.869Z,0
2018-03-06T03:50:34.367Z,0
2018-03-06T03:51:14.872Z,0
2018-03-06T03:51:56.377Z,0
2018-03-06T03:52:36.888Z,0
2018-03-06T03:53:17.409Z,0
2018-03-06T03:53:57.926Z,0
2018-03-06T03:54:38.456Z,0
2018-03-06T03:55:18.970Z,0
2018-03-06T03:55:59.459Z,0
2018-03-06T03:56:39.970Z,0
2018-03-06T03:57:20.488Z,0
2018-03-06T03:58:01.045Z,0
2018-03-06T03:58:41.545Z,0
2018-03-06T03:59:22.086Z,0
2018-03-06T04:00:02.601Z,0
2018-03-06T04:00:43.105Z,0
2018-03-06T04:01:23.617Z,0
2018-03-06T04:02:04.134Z,0
2018-03-06T04:02:44.681Z,0
2018-03-06T04:03:25.209Z,0
2018-03-06T04:04:05.728Z,0
2018-03-06T04:04:46.246Z,0
2018-03-06T04:05:26.768Z,0
2018-03-06T04:06:07.276Z,0
2018-03-06T04:06:47.784Z,0
2018-03-06T04:07:28.305Z,0
2018-03-06T04:08:08.812Z,0
2018-03-06T04:08:49.321Z,0
2018-03-06T04:09:29.829Z,0
2018-03-06T04:10:10.332Z,0
2018-03-06T04:10:50.838Z,0
2018-03-06T04:11:31.360Z,0
2018-03-06T04:12:11.871Z,0
2018-03-06T04:12:52.381Z,0
2018-03-06T04:13:32.893Z,0
2018-03-06T04:14:13.412Z,0
2018-03-06T04:14:53.922Z,0
2018-03-06T04:15:34.436Z,0
2018-03-06T04:16:14.968Z,0
2018-03-06T04:16:55.485Z,0
2018-03-06T04:17:36.005Z,0
2018-03-06T04:18:16.518Z,0
2018-03-06T04:18:57.027Z,0
2018-03-06T04:19:37.536Z,0
2018-03-06T04:20:18.046Z,0
2018-03-06T04:20:58.619Z,0
2018-03-06T04:21:39.135Z,0
2018-03-06T04:22:19.654Z,0
2018-03-06T04:23:00.186Z,0
2018-03-06T04:23:40.724Z,0
2018-03-06T04:24:21.313Z,0
2018-03-06T04:25:01.739Z,0
2018-03-06T04:25:42.285Z,0
2018-03-06T04:26:22.766Z,0
2018-03-06T04:27:03.259Z,0
2018-03-06T04:27:43.765Z,0
2018-03-06T04:28:24.284Z,0
2018-03-06T04:29:04.783Z,0
2018-03-06T04:29:45.302Z,0
2018-03-06T04:30:25.807Z,0
2018-03-06T04:31:06.324Z,0
2018-03-06T04:31:46.848Z,0
2018-03-06T04:32:27.363Z,0
2018-03-06T04:33:07.865Z,0
2018-03-06T04:33:48.379Z,0
2018-03-06T04:34:28.902Z,0
2018-03-06T04:35:09.408Z,0
2018-03-06T04:35:49.929Z,0
2018-03-06T04:36:30.439Z,0
2018-03-06T04:37:10.945Z,0
2018-03-06T04:37:51.458Z,0
2018-03-06T04:38:31.984Z,0
2018-03-06T04:39:12.485Z,0
2018-03-06T04:39:52.989Z,0
2018-03-06T04:40:33.527Z,0
2018-03-06T04:41:14.016Z,0
2018-03-06T04:41:54.497Z,0
2018-03-06T04:42:35.018Z,0
2018-03-06T04:43:15.537Z,0
2018-03-06T04:43:56.042Z,0
2018-03-06T04:44:36.548Z,0
2018-03-06T04:45:17.065Z,0
2018-03-06T04:45:57.599Z,0
2018-03-06T04:46:38.116Z,0
2018-03-06T04:47:18.632Z,0
2018-03-06T04:47:59.147Z,0
2018-03-06T04:48:39.673Z,0
2018-03-06T04:49:20.186Z,0
2018-03-06T04:50:00.696Z,0
2018-03-06T04:50:41.216Z,0
2018-03-06T04:51:21.725Z,0
2018-03-06T04:52:02.246Z,0
2018-03-06T04:52:42.752Z,0
2018-03-06T04:53:23.423Z,0
2018-03-06T04:54:03.904Z,0
2018-03-06T04:54:44.469Z,0
2018-03-06T04:55:24.977Z,0
2018-03-06T04:56:05.477Z,0
2018-03-06T04:56:45.986Z,0
2018-03-06T04:57:26.522Z,0
2018-03-06T04:58:07.004Z,0
2018-03-06T04:58:47.518Z,0
2018-03-06T04:59:28.033Z,0
2018-03-06T05:00:08.557Z,0
2018-03-06T05:00:49.076Z,0
2018-03-06T05:01:29.594Z,0
2018-03-06T05:02:10.111Z,0
2018-03-06T05:02:50.642Z,0
2018-03-06T05:03:31.173Z,0
2018-03-06T05:04:11.713Z,0
2018-03-06T05:04:52.246Z,0
2018-03-06T05:05:32.780Z,0
2018-03-06T05:06:13.309Z,0
2018-03-06T05:06:53.820Z,0
2018-03-06T05:07:34.335Z,0
2018-03-06T05:08:14.884Z,0
2018-03-06T05:08:55.400Z,0
2018-03-06T05:09:35.928Z,0
2018-03-06T05:10:16.454Z,0
2018-03-06T05:10:56.965Z,0
2018-03-06T05:11:37.472Z,0
2018-03-06T05:12:18.029Z,0
2018-03-06T05:12:58.508Z,0
2018-03-06T05:13:39.022Z,0
2018-03-06T05:14:19.531Z,0
2018-03-06T05:15:00.053Z,0
2018-03-06T05:15:40.572Z,0
2018-03-06T05:16:21.087Z,0
2018-03-06T05:17:01.637Z,0
2018-03-06T05:17:42.124Z,0
2018-03-06T05:18:22.654Z,0
2018-03-06T05:19:03.184Z,0
2018-03-06T05:19:43.720Z,0
2018-03-06T05:20:24.230Z,0
2018-03-06T05:21:04.746Z,0
2018-03-06T05:21:45.240Z,0
2018-03-06T05:22:25.752Z,0
2018-03-06T05:23:06.266Z,0
2018-03-06T05:23:46.795Z,0
2018-03-06T05:24:27.333Z,0
2018-03-06T05:25:07.867Z,0
2018-03-06T05:25:48.399Z,0
2018-03-06T05:26:28.921Z,0
2018-03-06T05:27:09.431Z,0
2018-03-06T05:27:49.935Z,0
2018-03-06T05:28:30.450Z,0
2018-03-06T05:29:10.978Z,0
2018-03-06T05:29:51.491Z,0
2018-03-06T05:30:32.013Z,0
2018-03-06T05:31:12.524Z,0
2018-03-06T05:31:53.043Z,0
2018-03-06T05:32:33.559Z,0
2018-03-06T05:33:14.091Z,0
2018-03-06T05:33:54.608Z,0
2018-03-06T05:34:35.124Z,0
2018-03-06T05:35:15.674Z,0
2018-03-06T05:35:56.184Z,0
2018-03-06T05:36:36.708Z,0
2018-03-06T05:37:17.224Z,0
2018-03-06T05:37:57.726Z,0
2018-03-06T05:38:38.275Z,0
2018-03-06T05:39:18.792Z,0
2018-03-06T05:39:59.328Z,0
2018-03-06T05:40:39.850Z,0
2018-03-06T05:41:20.362Z,0
2018-03-06T05:42:00.884Z,0
2018-03-06T05:42:41.402Z,0
2018-03-06T05:43:21.918Z,0
2018-03-06T05:44:02.426Z,0
2018-03-06T05:44:42.932Z,0
2018-03-06T05:45:23.451Z,0
2018-03-06T05:46:03.954Z,0
2018-03-06T05:46:44.504Z,0
2018-03-06T05:47:25.028Z,0
2018-03-06T05:48:05.548Z,0
2018-03-06T05:48:46.057Z,0
2018-03-06T05:49:26.563Z,0
2018-03-06T05:50:07.102Z,0
2018-03-06T05:50:47.590Z,0
2018-03-06T05:51:28.112Z,0
2018-03-06T05:52:08.634Z,0
2018-03-06T05:52:49.142Z,0
2018-03-06T05:53:29.655Z,0
2018-03-06T05:54:10.169Z,0
2018-03-06T05:54:50.684Z,0
2018-03-06T05:55:31.236Z,0
2018-03-06T05:56:11.801Z,0
2018-03-06T05:56:52.399Z,0
2018-03-06T05:57:32.937Z,0
2018-03-06T05:58:13.520Z,0
2018-03-06T05:58:54.030Z,0
2018-03-06T05:59:34.535Z,0
2018-03-06T06:00:15.026Z,5
2018-03-06T06:00:55.590Z,5
2018-03-06T06:01:36.048Z,5
2018-03-06T06:02:16.539Z,5
2018-03-06T06:02:56.972Z,5
2018-03-06T06:03:37.464Z,5
2018-03-06T06:04:18.006Z,5
2018-03-06T06:04:58.451Z,5
2018-03-06T06:05:38.984Z,5
2018-03-06T06:06:19.491Z,5
2018-03-06T06:06:59.988Z,5
2018-03-06T06:07:40.521Z,5
2018-03-06T06:08:21.036Z,10
2018-03-06T06:09:01.543Z,10
2018-03-06T06:09:42.057Z,10
2018-03-06T06:10:22.571Z,10
2018-03-06T06:11:03.119Z,10
2018-03-06T06:11:43.618Z,10
2018-03-06T06:12:24.124Z,10
2018-03-06T06:13:04.708Z,10
2018-03-06T06:13:45.224Z,15
2018-03-06T06:14:25.759Z,15
2018-03-06T06:15:06.290Z,15
2018-03-06T06:15:46.788Z,15
2018-03-06T06:16:27.294Z,15
2018-03-06T06:17:07.833Z,15
2018-03-06T06:17:48.345Z,15
2018-03-06T06:18:28.852Z,20
2018-03-06T06:19:09.365Z,20
2018-03-06T06:19:49.877Z,20
2018-03-06T06:20:30.412Z,20
2018-03-06T06:21:11.026Z,20
2018-03-06T06:21:51.545Z,20
2018-03-06T06:22:32.068Z,20
2018-03-06T06:23:12.587Z,25
2018-03-06T06:23:53.108Z,25
2018-03-06T06:24:33.664Z,25
2018-03-06T06:25:14.140Z,25
2018-03-06T06:25:54.723Z,25
2018-03-06T06:26:35.223Z,25
2018-03-06T06:27:15.741Z,25
2018-03-06T06:27:56.257Z,25
2018-03-06T06:28:36.915Z,30
2018-03-06T06:29:17.413Z,30
2018-03-06T06:29:57.944Z,30
2018-03-06T06:30:38.463Z,30
2018-03-06T06:31:18.990Z,30
2018-03-06T06:31:59.517Z,30
2018-03-06T06:32:40.045Z,30
2018-03-06T06:33:20.571Z,30
2018-03-06T06:34:01.102Z,35
2018-03-06T06:34:41.807Z,35
2018-03-06T06:35:22.361Z,35
2018-03-06T06:36:02.880Z,35
2018-03-06T06:36:43.391Z,35
2018-03-06T06:37:23.924Z,35
2018-03-06T06:38:04.419Z,40
2018-03-06T06:38:44.923Z,40
2018-03-06T06:39:25.471Z,40
2018-03-06T06:40:05.962Z,40
2018-03-06T06:40:46.476Z,40
2018-03-06T06:41:26.984Z,40
2018-03-06T06:42:07.604Z,40
2018-03-06T06:42:48.156Z,45
2018-03-06T06:43:28.631Z,45
2018-03-06T06:44:09.167Z,45
2018-03-06T06:44:49.683Z,45
2018-03-06T06:45:30.199Z,45
2018-03-06T06:46:10.739Z,45
2018-03-06T06:46:51.294Z,50
2018-03-06T06:47:31.818Z,50
2018-03-06T06:48:12.383Z,50
2018-03-06T06:48:52.895Z,50
2018-03-06T06:49:33.977Z,50
2018-03-06T06:50:14.491Z,50
2018-03-06T06:50:55.310Z,55
2018-03-06T06:51:35.830Z,55
2018-03-06T06:52:16.340Z,55
2018-03-06T06:52:56.851Z,55
2018-03-06T06:53:37.371Z,50
2018-03-06T06:54:17.885Z,55
2018-03-06T06:54:58.406Z,55
2018-03-06T06:55:38.934Z,55
2018-03-06T06:56:19.478Z,55
2018-03-06T06:57:00.005Z,55
2018-03-06T06:57:40.525Z,55
2018-03-06T06:58:21.101Z,60
2018-03-06T06:59:01.612Z,60
2018-03-06T06:59:42.195Z,60
2018-03-06T07:00:22.657Z,60
2018-03-06T07:01:03.179Z,60
2018-03-06T07:01:43.688Z,60
2018-03-06T07:02:24.201Z,60
2018-03-06T07:03:04.718Z,65
2018-03-06T07:03:45.241Z,65
2018-03-06T07:04:25.813Z,65
2018-03-06T07:05:06.265Z,65
2018-03-06T07:05:46.794Z,70
2018-03-06T07:06:27.326Z,70
2018-03-06T07:07:07.847Z,70
2018-03-06T07:07:48.374Z,70
2018-03-06T07:08:28.888Z,70
2018-03-06T07:09:09.410Z,70
2018-03-06T07:09:49.922Z,75
2018-03-06T07:10:30.436Z,75
2018-03-06T07:11:10.932Z,75
2018-03-06T07:11:51.445Z,75
2018-03-06T07:12:32.146Z,75
2018-03-06T07:13:12.673Z,75
2018-03-06T07:13:53.186Z,80
2018-03-06T07:14:33.729Z,80
2018-03-06T07:15:14.333Z,80
2018-03-06T07:15:54.885Z,80
2018-03-06T07:16:35.410Z,85
2018-03-06T07:17:15.939Z,85
2018-03-06T07:17:56.441Z,85
2018-03-06T07:18:36.969Z,90
2018-03-06T07:19:17.479Z,90
2018-03-06T07:19:57.991Z,90
2018-03-06T07:20:38.497Z,95
2018-03-06T07:21:19.075Z,95
2018-03-06T07:21:59.612Z,95
2018-03-06T07:22:40.090Z,95
2018-03-06T07:23:20.614Z,95
2018-03-06T07:24:01.146Z,95
2018-03-06T07:24:41.588Z,95
2018-03-06T07:25:22.075Z,95
2018-03-06T07:26:02.579Z,95
2018-03-06T07:26:43.072Z,95
2018-03-06T07:27:23.577Z,95
2018-03-06T07:28:04.034Z,100
2018-03-06T07:28:44.503Z,100
2018-03-06T07:29:25.164Z,100
2018-03-06T07:30:05.554Z,100
2018-03-06T07:30:46.076Z,100
2018-03-06T07:31:26.575Z,100
2018-03-06T07:32:07.333Z,100
2018-03-06T07:32:47.811Z,100
2018-03-06T07:33:29.110Z,100
2018-03-06T07:34:09.636Z,100
2018-03-06T07:34:50.090Z,100
2018-03-06T07:35:30.592Z,105
2018-03-06T07:38:09.300Z,105
2018-03-06T07:38:49.752Z,105
2018-03-06T07:39:30.260Z,105
2018-03-06T07:40:10.763Z,105
2018-03-06T07:40:51.285Z,105
2018-03-06T07:41:31.803Z,105
2018-03-06T07:42:12.326Z,105
2018-03-06T07:42:52.993Z,110
2018-03-06T07:43:33.554Z,110
2018-03-06T07:44:14.070Z,105
2018-03-06T07:44:54.589Z,110
2018-03-06T07:45:35.098Z,110
2018-03-06T07:46:15.711Z,110
2018-03-06T07:46:56.206Z,110
2018-03-06T07:47:36.711Z,110
2018-03-06T07:48:19.253Z,115
2018-03-06T07:49:49.340Z,115
2018-03-06T07:50:39.350Z,115
2018-03-06T07:53:25.828Z,115
2018-03-06T07:54:06.433Z,115
2018-03-06T07:54:46.946Z,115
2018-03-06T07:55:27.442Z,120
2018-03-06T07:56:07.955Z,120
2018-03-06T07:56:48.441Z,120
2018-03-06T07:57:28.892Z,120
2018-03-06T07:58:09.410Z,120
2018-03-06T07:58:49.851Z,120
2018-03-06T07:59:30.343Z,120
2018-03-06T08:00:10.886Z,120
2018-03-06T08:00:51.345Z,120
2018-03-06T08:01:31.853Z,125
2018-03-06T08:02:12.359Z,125
2018-03-06T08:02:52.868Z,125
2018-03-06T08:03:33.378Z,125
2018-03-06T08:07:09.630Z,130
2018-03-06T08:07:50.137Z,135
2018-03-06T08:08:30.686Z,135
2018-03-06T08:09:11.169Z,135
2018-03-06T08:09:51.668Z,135
2018-03-06T08:10:32.192Z,140
2018-03-06T08:11:12.691Z,140
2018-03-06T08:11:53.200Z,140
2018-03-06T08:12:33.695Z,140
2018-03-06T08:13:14.195Z,145
2018-03-06T08:13:54.727Z,145
2018-03-06T08:14:35.257Z,145
2018-03-06T08:15:15.767Z,145
2018-03-06T08:15:56.270Z,145
2018-03-06T08:16:36.785Z,145
2018-03-06T08:17:17.301Z,145
2018-03-06T08:17:57.813Z,145
2018-03-06T08:21:00.309Z,145
2018-03-06T08:21:40.835Z,145
2018-03-06T08:22:21.336Z,145
2018-03-06T08:23:01.860Z,145
2018-03-06T08:23:42.349Z,150
2018-03-06T08:24:22.864Z,150
2018-03-06T08:25:03.382Z,150
2018-03-06T08:25:43.899Z,155
2018-03-06T08:26:24.404Z,155
2018-03-06T08:27:04.926Z,155
2018-03-06T08:27:45.436Z,155
2018-03-06T08:28:25.942Z,155
2018-03-06T08:29:06.447Z,155
2018-03-06T08:29:46.962Z,160
2018-03-06T08:30:27.491Z,160
2018-03-06T08:31:08.014Z,160
2018-03-06T08:31:48.532Z,160
2018-03-06T08:32:29.076Z,160
2018-03-06T08:33:09.605Z,160
2018-03-06T08:33:50.141Z,160
2018-03-06T08:34:30.658Z,160
2018-03-06T08:35:11.188Z,160
2018-03-06T08:35:51.681Z,160
2018-03-06T08:36:32.255Z,160
2018-03-06T08:37:12.888Z,160
2018-03-06T08:37:53.534Z,160
2018-03-06T08:38:34.070Z,160
2018-03-06T08:39:14.566Z,160
2018-03-06T08:39:55.060Z,160
2018-03-06T08:40:35.540Z,160
2018-03-06T08:41:16.027Z,160
2018-03-06T08:41:56.511Z,160
2018-03-06T08:42:37.028Z,160
2018-03-06T08:43:17.556Z,160
2018-03-06T08:43:58.069Z,160
2018-03-06T08:44:38.587Z,165
2018-03-06T08:45:19.097Z,165
2018-03-06T08:45:59.619Z,165
2018-03-06T08:46:40.130Z,165
2018-03-06T08:47:20.650Z,160
2018-03-06T08:48:01.160Z,160
2018-03-06T08:48:41.674Z,160
2018-03-06T08:49:22.202Z,165
2018-03-06T08:50:02.714Z,165
2018-03-06T08:50:43.234Z,165
2018-03-06T08:51:23.750Z,165
2018-03-06T08:52:04.266Z,165
2018-03-06T08:52:44.785Z,165
2018-03-06T08:53:25.297Z,165
2018-03-06T08:54:05.808Z,165
2018-03-06T08:54:46.319Z,165
2018-03-06T08:55:26.834Z,165
2018-03-06T08:56:07.345Z,165
2018-03-06T08:56:47.866Z,165
2018-03-06T08:57:28.397Z,165
2018-03-06T08:58:08.911Z,165
2018-03-06T08:58:49.438Z,165
2018-03-06T08:59:29.959Z,165
2018-03-06T09:00:10.481Z,165
2018-03-06T09:00:51.024Z,165
2018-03-06T09:01:31.570Z,165
2018-03-06T09:02:12.106Z,165
2018-03-06T09:02:52.583Z,165
2018-03-06T09:03:33.457Z,165
2018-03-06T09:04:13.962Z,165
2018-03-06T09:04:54.463Z,165
2018-03-06T09:05:34.974Z,165
2018-03-06T09:06:16.183Z,165
2018-03-06T09:06:56.712Z,165
2018-03-06T09:07:37.224Z,165
2018-03-06T09:08:17.755Z,165
2018-03-06T09:08:58.269Z,165
2018-03-06T09:09:38.793Z,165
2018-03-06T09:10:19.310Z,165
2018-03-06T09:10:59.818Z,165
2018-03-06T09:11:40.376Z,165
2018-03-06T09:12:20.883Z,165
2018-03-06T09:13:01.400Z,165
2018-03-06T09:13:41.918Z,165
2018-03-06T09:14:22.457Z,165
2018-03-06T09:15:02.999Z,165
2018-03-06T09:15:43.883Z,165
2018-03-06T09:16:24.405Z,165
2018-03-06T09:17:04.912Z,165
2018-03-06T09:17:45.424Z,165
2018-03-06T09:18:25.946Z,165
2018-03-06T09:19:06.462Z,165
2018-03-06T09:19:46.976Z,165
2018-03-06T09:20:27.512Z,165
2018-03-06T09:21:08.062Z,165
2018-03-06T09:21:48.540Z,165
2018-03-06T09:22:29.073Z,165
2018-03-06T09:23:09.573Z,165
2018-03-06T09:23:50.548Z,165
2018-03-06T09:24:31.095Z,165
2018-03-06T09:25:11.681Z,165
2018-03-06T09:25:52.187Z,165
2018-03-06T09:26:32.710Z,165
2018-03-06T09:27:13.228Z,165
2018-03-06T09:27:53.759Z,165
2018-03-06T09:28:34.271Z,165
2018-03-06T09:29:14.780Z,170
2018-03-06T09:29:55.292Z,170
2018-03-06T09:30:35.810Z,170
2018-03-06T09:31:16.337Z,170
2018-03-06T09:31:56.868Z,170
2018-03-06T09:32:37.390Z,170
2018-03-06T09:33:17.912Z,170
2018-03-06T09:33:58.419Z,170
2018-03-06T09:34:38.942Z,170
2018-03-06T09:35:19.464Z,170
2018-03-06T09:35:59.984Z,170
2018-03-06T09:36:40.509Z,170
2018-03-06T09:37:21.027Z,175
2018-03-06T09:38:01.534Z,170
2018-03-06T09:38:42.054Z,170
2018-03-06T09:39:22.566Z,170
2018-03-06T09:40:03.075Z,170
2018-03-06T09:40:43.592Z,175
2018-03-06T09:41:24.193Z,175
2018-03-06T09:42:04.707Z,175
2018-03-06T09:42:45.224Z,175
2018-03-06T09:43:25.747Z,175
2018-03-06T09:44:06.257Z,175
2018-03-06T09:44:46.762Z,175
2018-03-06T09:45:27.283Z,180
2018-03-06T09:46:07.793Z,180
2018-03-06T09:46:48.306Z,180
2018-03-06T09:47:28.850Z,180
2018-03-06T09:48:09.349Z,180
2018-03-06T09:48:49.880Z,180
2018-03-06T09:49:30.397Z,185
2018-03-06T09:50:10.890Z,180
2018-03-06T09:50:51.438Z,175
2018-03-06T09:51:31.965Z,160
2018-03-06T09:52:12.478Z,160
2018-03-06T09:52:52.989Z,160
2018-03-06T09:53:33.541Z,160
2018-03-06T09:54:14.050Z,160
2018-03-06T09:54:54.574Z,160
2018-03-06T09:55:35.105Z,160
2018-03-06T09:56:15.624Z,165